Página principal
METAR-TAF:

METAR-TAF

Aeroportos :

Hagåtña, Guam, Estados Unidos

latitude: 13-29N, longitude: 144-48E, altura: 91 m

Observação actual do tempo

O boletim foi feito há 1 hora e 3 minutos, às 03:54 UTC
Vento 4 kt com direcção variável
Temperatura 31°C
Humidade 75%
Pressão 1010 hPa
Visibilidade: 16.1 km
Nuvens fragmentadasa uma altura de 2200 ft
Encobertoa uma altura de 2800 ft

METAR: PGUM 230354Z VRB04KT 10SM BKN022 OVC028 31/26 A2983 RMK AO2 SLP093 T03060261

Hora: 14:57 (04:57 UTC)

Previsão

O boletim foi feito há 3 horas e 32 minutos, às 01:25 UTC
Previsão válida de 23 às 01 UTC a 24 às 06 UTC
Vento 8 kt de sudeste
Visibilidade: 10 km
Poucas nuvensa uma altura de 1800 ft
Nuvens dispersasa uma altura de 2500 ft
aguaceiros nas vizinhanças
A partir de 23 às 0900 UTC
Vento 5 kt com direcção variável
Visibilidade: 10 km
Nuvens dispersasa uma altura de 2000 ft

TAF: PGUM 230125Z 2301/2406 13008KT P6SM VCSH FEW018 SCT025 FM230900 VRB05KT P6SM SCT020

Observações e previsões do tempo de mais de 4000 aeroportos (mensagens METAR e TAF).

As estações disponíveis são os pontos amarelos e vermelhos sobre o mapa.

Mova o rato sobre o mapa para ver o nome da estação.

Depois clique no ponto para visualizar as observações e previsões meteorológicas.

Para alterar o mapa : clique nos botões verdes com uma cruz preta para aumentar o zoom; no botão verde com uma pitada de zoom; ou nas setas verdes para mapas adjacentes.


METAR-TAF: